Humidity-temperature Sensor

Selected Measurement Type: Relative Humidity

 
Relative Humidity [%]     6 entries per hour
Showing data from 4/13/2015 (00:00:00 Z) to 4/6/2015 (00:01:00 Z)
Previous Next [ Day | 3-Days | 7-Days ]
First Last
Prev [ Day | 3-Days | 7-Days ] Next
First Last

Start Time:     :
End Time:     :     
Time (in GMT) :00 :50 :40 :30 :20 :10
Previous Next [ Day | 3-Days | 7-Days ]
First Last
Prev [ Day | 3-Days | 7-Days ] Next
First Last


123 => good data
MM => data is determined as missing
-- => data not received/configured
Back to Top Back to Top
4/13/2015 00:00 to 23:10 88.26 88.54 88.39 88.06 88.54 88.04
4/12/2015 23:00 to 22:10 87.52 87.02 86.89 87.52 88.21 88.32
4/12/2015 22:00 to 21:10 88.99 89.56 90.08 89.75 89.60 89.23
4/12/2015 21:00 to 20:10 88.93 88.52 87.67 86.74 86.20 86.74
4/12/2015 20:00 to 19:10 85.57 88.17 89.79 90.94 91.59 92.20
4/12/2015 19:00 to 18:10 92.43 92.33 92.65 93.13 93.45 93.69
4/12/2015 18:00 to 17:10 94.17 94.34 94.45 94.32 94.08 93.86
4/12/2015 17:00 to 16:10 93.60 94.01 93.82 95.27 97.26 97.93
4/12/2015 16:00 to 15:10 97.72 97.91 98.00 96.59 94.73 90.96
4/12/2015 15:00 to 14:10 90.31 91.53 92.41 91.50 94.17 96.35
4/12/2015 14:00 to 13:10 95.64 93.75 95.10 93.39 93.88 93.78
4/12/2015 13:00 to 12:10 93.52 93.39 89.27 89.69 88.67 87.76
4/12/2015 12:00 to 11:10 87.30 88.45 87.59 87.65 89.34 90.16
4/12/2015 11:00 to 10:10 89.01 89.25 88.30 90.08 91.76 89.17
4/12/2015 10:00 to 9:10 88.71 88.88 89.45 89.10 89.64 89.34
4/12/2015 09:00 to 8:10 88.86 87.33 87.26 87.76 87.26 88.34
4/12/2015 08:00 to 7:10 87.46 86.27 86.81 88.37 87.98 87.95
4/12/2015 07:00 to 6:10 88.28 89.62 89.82 87.85 88.21 88.58
4/12/2015 06:00 to 5:10 89.43 88.43 88.39 87.56 87.33 88.08
4/12/2015 05:00 to 4:10 89.01 89.10 88.30 87.95 85.98 87.28
4/12/2015 04:00 to 3:10 87.43 85.90 88.63 89.06 88.37 89.10
4/12/2015 03:00 to 2:10 88.82 88.02 87.46 85.77 85.44 85.36
4/12/2015 02:00 to 1:10 84.17 83.63 85.27 84.86 86.01 84.38
4/12/2015 01:00 to 0:10 83.34 84.58 86.81 87.46 87.69 87.72
4/12/2015 00:00 to 23:10 87.78 87.67 87.89 87.59 89.45 91.61
4/11/2015 23:00 to 22:10 91.20 90.75 89.66 90.18 87.39 86.89
4/11/2015 22:00 to 21:10 86.83 85.51 86.50 88.21 87.52 87.35
4/11/2015 21:00 to 20:10 86.89 85.85 87.22 89.64 90.53 87.41
4/11/2015 20:00 to 19:10 86.16 86.20 85.12 85.40 86.11 86.74
4/11/2015 19:00 to 18:10 85.29 86.59 86.33 84.97 84.56 86.05
4/11/2015 18:00 to 17:10 87.20 86.24 86.37 87.85 87.11 86.63
4/11/2015 17:00 to 16:10 87.48 87.02 88.06 87.72 87.35 86.24
4/11/2015 16:00 to 15:10 86.70 88.26 87.95 88.32 88.13 86.85
4/11/2015 15:00 to 14:10 86.35 86.81 86.55 86.53 86.94 88.06
4/11/2015 14:00 to 13:10 87.13 86.42 85.98 86.81 85.85 86.89
4/11/2015 13:00 to 12:10 87.35 87.30 88.15 87.39 87.37 88.06
4/11/2015 12:00 to 11:10 88.08 87.59 86.59 85.94 86.03 86.44
4/11/2015 11:00 to 10:10 86.53 89.38 88.86 87.82 87.28 87.39
4/11/2015 10:00 to 9:10 86.76 85.75 83.58 83.04 80.05 82.98
4/11/2015 09:00 to 8:10 86.61 87.98 88.17 88.24 87.80 87.48
4/11/2015 08:00 to 7:10 88.17 86.55 86.24 85.75 84.95 85.75
4/11/2015 07:00 to 6:10 86.29 86.16 86.61 84.71 85.64 84.38
4/11/2015 06:00 to 5:10 84.14 84.30 79.25 78.56 82.48 82.89
4/11/2015 05:00 to 4:10 84.51 85.83 86.31 86.18 86.05 86.33
4/11/2015 04:00 to 3:10 86.70 85.25 85.70 84.53 85.03 85.59
4/11/2015 03:00 to 2:10 84.92 84.45 82.80 83.06 82.50 82.02
4/11/2015 02:00 to 1:10 84.23 83.34 83.21 85.25 86.03 84.88
4/11/2015 01:00 to 0:10 84.82 88.43 88.99 87.98 80.85 84.51
4/11/2015 00:00 to 23:10 84.90 84.17 84.43 84.82 86.09 86.92
4/10/2015 23:00 to 22:10 86.79 87.24 88.15 87.63 87.54 87.54
4/10/2015 22:00 to 21:10 87.56 87.11 86.66 85.64 87.09 86.05
4/10/2015 21:00 to 20:10 86.72 86.55 86.55 86.81 86.66 86.27
4/10/2015 20:00 to 19:10 85.51 85.59 85.85 85.18 85.55 85.40
4/10/2015 19:00 to 18:10 84.23 83.54 83.21 83.41 83.37 83.63
4/10/2015 18:00 to 17:10 84.77 86.20 86.01 85.36 85.64 86.31
4/10/2015 17:00 to 16:10 86.70 87.41 87.67 88.28 88.69 88.93
4/10/2015 16:00 to 15:10 89.69 89.84 89.64 90.85 91.24 91.31
4/10/2015 15:00 to 14:10 89.56 88.99 88.80 88.30 89.49 91.27
4/10/2015 14:00 to 13:10 92.50 92.61 91.94 90.90 93.73 96.70
4/10/2015 13:00 to 12:10 97.07 96.11 95.10 90.57 86.96 87.54
4/10/2015 12:00 to 11:10 87.85 89.77 88.84 87.35 89.43 88.08
4/10/2015 11:00 to 10:10 89.10 90.81 90.44 90.81 90.01 91.76
4/10/2015 10:00 to 9:10 90.88 91.29 92.41 94.10 94.30 93.52
4/10/2015 09:00 to 8:10 87.43 86.85 86.46 86.05 87.17 86.03
4/10/2015 08:00 to 7:10 86.11 85.25 85.64 84.99 84.69 83.93
4/10/2015 07:00 to 6:10 83.06 83.32 82.82 83.24 89.14 90.25
4/10/2015 06:00 to 5:10 90.57 91.24 92.82 93.41 93.21 93.45
4/10/2015 05:00 to 4:10 87.24 85.68 85.27 85.92 85.57 85.98
4/10/2015 04:00 to 3:10 85.83 86.48 85.98 85.53 86.16 86.44
4/10/2015 03:00 to 2:10 87.09 86.79 86.11 84.53 84.58 84.73
4/10/2015 02:00 to 1:10 85.12 85.08 84.58 85.64 86.85 86.53
4/10/2015 01:00 to 0:10 86.50 85.18 86.33 87.04 85.85 87.24
4/10/2015 00:00 to 23:10 88.39 87.98 88.52 90.03 86.72 84.21
4/9/2015 23:00 to 22:10 84.23 82.22 81.53 83.02 84.08 85.49
4/9/2015 22:00 to 21:10 83.11 88.50 87.20 88.65 89.64 87.22
4/9/2015 21:00 to 20:10 81.01 83.54 86.66 85.83 87.17 86.66
4/9/2015 20:00 to 19:10 87.22 86.14 86.42 86.22 86.01 86.18
4/9/2015 19:00 to 18:10 84.86 85.77 85.44 84.17 84.82 83.54
4/9/2015 18:00 to 17:10 87.59 86.01 84.23 82.41 81.98 79.71
4/9/2015 17:00 to 16:10 80.10 79.10 81.79 87.95 87.13 87.67
4/9/2015 16:00 to 15:10 86.94 90.96 89.73 90.05 89.75 88.91
4/9/2015 15:00 to 14:10 88.58 89.69 89.58 90.57 89.53 89.75
4/9/2015 14:00 to 13:10 90.16 89.27 87.41 86.40 85.77 87.52
4/9/2015 13:00 to 12:10 87.43 87.89 88.30 88.28 86.83 87.91
4/9/2015 12:00 to 11:10 88.91 88.04 88.21 88.75 88.28 89.71
4/9/2015 11:00 to 10:10 88.24 89.27 88.28 89.36 88.95 89.40
4/9/2015 10:00 to 9:10 89.90 89.45 89.45 88.80 88.73 89.01
4/9/2015 09:00 to 8:10 87.98 87.26 88.69 88.86 89.32 88.21
4/9/2015 08:00 to 7:10 87.59 88.43 88.04 88.60 87.41 87.35
4/9/2015 07:00 to 6:10 87.93 86.50 87.52 87.93 88.73 88.26
4/9/2015 06:00 to 5:10 90.21 88.93 91.35 91.57 91.16 90.75
4/9/2015 05:00 to 4:10 90.98 90.70 91.96 91.79 90.59 90.77
4/9/2015 04:00 to 3:10 90.83 90.64 91.11 92.61 93.15 93.86
4/9/2015 03:00 to 2:10 93.78 94.32 94.36 94.90 95.92 96.83
4/9/2015 02:00 to 1:10 97.74 98.08 97.74 98.13 97.00 97.37
4/9/2015 01:00 to 0:10 97.69 96.61 92.61 90.68 89.99 90.05
4/9/2015 00:00 to 23:10 90.14 92.41 94.82 96.85 94.38 87.93
4/8/2015 23:00 to 22:10 85.42 84.86 86.46 86.92 86.76 87.22
4/8/2015 22:00 to 21:10 87.28 88.58 87.11 88.50 88.56 88.71
4/8/2015 21:00 to 20:10 88.84 89.95 89.97 89.36 90.25 90.42
4/8/2015 20:00 to 19:10 90.42 90.01 90.70 89.64 87.52 87.78
4/8/2015 19:00 to 18:10 86.35 90.21 89.47 89.25 88.86 88.86
4/8/2015 18:00 to 17:10 88.78 89.51 89.43 88.86 87.82 87.00
4/8/2015 17:00 to 16:10 87.63 87.28 84.95 84.64 89.75 90.66
4/8/2015 16:00 to 15:10 91.92 90.25 89.86 89.79 90.59 90.88
4/8/2015 15:00 to 14:10 91.29 91.48 91.44 91.22 90.66 90.57
4/8/2015 14:00 to 13:10 90.94 93.24 93.78 92.93 89.38 89.95
4/8/2015 13:00 to 12:10 89.17 88.75 88.63 89.40 89.21 89.27
4/8/2015 12:00 to 11:10 90.08 89.40 90.01 89.12 89.19 88.82
4/8/2015 11:00 to 10:10 90.18 89.64 89.69 89.47 90.03 93.32
4/8/2015 10:00 to 9:10 92.98 89.86 89.60 89.60 89.01 88.99
4/8/2015 09:00 to 8:10 90.03 92.09 92.37 92.87 94.30 94.71
4/8/2015 08:00 to 7:10 95.12 94.21 89.04 88.24 87.35 87.39
4/8/2015 07:00 to 6:10 89.82 94.51 96.70 95.57 92.91 89.95
4/8/2015 06:00 to 5:10 90.33 90.25 89.66 90.83 92.15 92.35
4/8/2015 05:00 to 4:10 92.50 92.37 92.61 93.37 93.78 93.06
4/8/2015 04:00 to 3:10 90.36 89.99 89.66 88.71 89.08 91.07
4/8/2015 03:00 to 2:10 90.88 90.75 91.18 91.72 91.89 91.81
4/8/2015 02:00 to 1:10 92.52 94.06 95.27 96.66 96.20 89.99
4/8/2015 01:00 to 0:10 83.73 82.69 83.32 82.85 82.85 81.83
4/8/2015 00:00 to 23:10 81.40 81.46 81.81 81.07 81.81 82.72
4/7/2015 23:00 to 22:10 -- -- -- -- -- --
4/7/2015 22:00 to 21:10 83.78 82.89 81.83 83.34 82.93 85.40
4/7/2015 21:00 to 20:10 85.40 85.62 85.16 84.97 84.66 84.19
4/7/2015 20:00 to 19:10 84.30 83.75 82.80 82.17 82.26 83.13
4/7/2015 19:00 to 18:10 83.00 84.60 84.47 85.01 83.91 83.86
4/7/2015 18:00 to 17:10 83.32 84.14 82.59 82.74 83.39 83.21
4/7/2015 17:00 to 16:10 83.19 85.62 81.48 82.52 82.37 83.86
4/7/2015 16:00 to 15:10 83.86 84.77 85.88 84.95 84.53 85.44
4/7/2015 15:00 to 14:10 86.48 86.70 85.83 87.02 84.79 85.31
4/7/2015 14:00 to 13:10 85.49 85.77 86.05 84.21 85.62 86.50
4/7/2015 13:00 to 12:10 85.92 87.35 87.30 86.50 86.81 87.04
4/7/2015 12:00 to 11:10 86.55 87.09 86.35 84.88 86.29 86.09
4/7/2015 11:00 to 10:10 85.72 85.12 85.05 85.36 86.07 85.94
4/7/2015 10:00 to 9:10 84.92 85.81 84.49 84.32 83.58 84.49
4/7/2015 09:00 to 8:10 83.95 83.21 84.10 83.32 83.71 85.16
4/7/2015 08:00 to 7:10 84.34 83.88 84.21 85.53 84.53 83.39
4/7/2015 07:00 to 6:10 84.62 85.10 84.23 87.00 87.41 87.63
4/7/2015 06:00 to 5:10 87.09 87.04 87.48 86.94 87.61 87.46
4/7/2015 05:00 to 4:10 87.09 86.53 85.85 86.94 85.44 86.18
4/7/2015 04:00 to 3:10 85.72 85.44 85.51 85.42 84.77 84.14
4/7/2015 03:00 to 2:10 83.84 82.35 82.52 83.21 81.70 82.78
4/7/2015 02:00 to 1:10 82.35 81.48 83.60 84.19 82.87 82.98
4/7/2015 01:00 to 0:10 83.60 84.77 83.39 82.24 83.21 84.62
4/7/2015 00:00 to 23:10 83.26 83.34 84.58 83.63 84.40 83.91
4/6/2015 23:00 to 22:10 84.53 84.84 85.31 85.23 86.07 86.16
4/6/2015 22:00 to 21:10 86.16 85.42 86.44 86.20 85.14 84.23
4/6/2015 21:00 to 20:10 85.38 84.45 85.70 84.56 84.79 84.75
4/6/2015 20:00 to 19:10 85.70 84.38 84.69 83.99 83.45 83.69
4/6/2015 19:00 to 18:10 83.69 84.64 84.69 83.13 82.91 83.02
4/6/2015 18:00 to 17:10 83.45 84.60 82.65 83.99 85.59 84.86
4/6/2015 17:00 to 16:10 84.79 85.01 83.91 85.03 83.78 85.21
4/6/2015 16:00 to 15:10 85.14 86.11 85.21 85.94 86.09 87.11
4/6/2015 15:00 to 14:10 86.42 86.44 88.67 87.13 86.55 85.18
4/6/2015 14:00 to 13:10 87.20 85.72 88.00 87.54 88.02 86.63
4/6/2015 13:00 to 12:10 87.26 86.16 84.97 86.63 85.96 86.59
4/6/2015 12:00 to 11:10 85.85 86.33 85.77 85.59 85.44 85.08
4/6/2015 11:00 to 10:10 83.24 82.91 84.77 83.19 83.37 83.99
4/6/2015 10:00 to 9:10 86.48 86.11 85.08 84.92 86.44 84.17
4/6/2015 09:00 to 8:10 84.25 83.97 89.47 87.28 87.74 87.82
4/6/2015 08:00 to 7:10 87.95 87.07 85.53 84.95 83.86 82.30
4/6/2015 07:00 to 6:10 89.62 89.32 88.32 89.99 93.54 92.43
4/6/2015 06:00 to 5:10 87.13 85.81 86.03 84.84 82.76 82.30
4/6/2015 05:00 to 4:10 90.77 90.25 93.84 93.86 85.64 85.23
4/6/2015 04:00 to 3:10 85.85 86.33 87.41 87.65 87.54 87.07
4/6/2015 03:00 to 2:10 86.03 87.37 87.00 87.98 86.92 87.13
4/6/2015 02:00 to 1:10 88.45 89.90 93.02 93.99 87.04 84.36
4/6/2015 01:00 to 0:10 83.54 84.49 85.16 85.21 84.73 84.21